createdAt,value
2019-03-25T00:02:28.789Z,101881.98
2019-03-25T00:04:56.583Z,101884.03
2019-03-25T00:07:24.407Z,101891.45
2019-03-25T00:09:52.198Z,101894.45
2019-03-25T00:12:20.058Z,101882.38
2019-03-25T00:14:47.868Z,101895.77
2019-03-25T00:17:15.726Z,101911.04
2019-03-25T00:19:43.534Z,101917.69
2019-03-25T00:22:11.343Z,101906.30
2019-03-25T00:24:39.390Z,101907.65
2019-03-25T00:27:07.231Z,101907.98
2019-03-25T00:29:35.040Z,101908.14
2019-03-25T00:32:02.899Z,101893.16
2019-03-25T00:34:30.757Z,101898.47
2019-03-25T00:36:58.539Z,101888.06
2019-03-25T00:39:26.373Z,101887.48
2019-03-25T00:41:54.252Z,101901.78
2019-03-25T00:44:22.049Z,101899.58
2019-03-25T00:46:49.918Z,101891.11
2019-03-25T00:49:17.773Z,101894.42
2019-03-25T00:51:45.646Z,101898.83
2019-03-25T00:54:13.541Z,101894.99
2019-03-25T00:56:41.350Z,101890.09
2019-03-25T00:59:09.154Z,101878.45
2019-03-25T01:01:37.033Z,101883.09
2019-03-25T01:04:04.838Z,101868.84
2019-03-25T01:06:32.749Z,101866.63
2019-03-25T01:09:00.568Z,101868.02
2019-03-25T01:11:28.550Z,101863.92
2019-03-25T01:13:56.357Z,101863.22
2019-03-25T01:16:24.183Z,101858.47
2019-03-25T01:18:52.021Z,101859.08
2019-03-25T01:21:19.821Z,101855.95
2019-03-25T01:23:47.650Z,101850.14
2019-03-25T01:26:15.535Z,101851.66
2019-03-25T01:28:43.371Z,101857.98
2019-03-25T01:31:11.194Z,101855.47
2019-03-25T01:33:39.076Z,101851.57
2019-03-25T01:36:06.920Z,101844.52
2019-03-25T01:38:34.817Z,101841.02
2019-03-25T01:41:02.692Z,101835.97
2019-03-25T01:43:30.489Z,101829.96
2019-03-25T01:45:58.374Z,101829.96
2019-03-25T01:48:26.235Z,101826.13
2019-03-25T01:50:54.026Z,101826.13
2019-03-25T01:53:21.806Z,101825.34
2019-03-25T01:55:49.638Z,101819.39
2019-03-25T01:58:17.455Z,101814.66
2019-03-25T02:00:45.306Z,101820.81
2019-03-25T02:03:13.142Z,101822.59
2019-03-25T02:05:40.975Z,101814.56
2019-03-25T02:08:08.781Z,101818.61
2019-03-25T02:10:36.644Z,101807.23
2019-03-25T02:13:04.622Z,101798.90
2019-03-25T02:15:32.442Z,101802.30
2019-03-25T02:18:00.302Z,101793.86
2019-03-25T02:20:28.137Z,101794.88
2019-03-25T02:22:56.133Z,101787.83
2019-03-25T02:25:25.584Z,101776.98
2019-03-25T02:27:53.776Z,101783.53
2019-03-25T02:30:21.686Z,101783.61
2019-03-25T02:32:49.483Z,101786.91
2019-03-25T02:35:17.302Z,101789.03
2019-03-25T02:37:45.179Z,101781.57
2019-03-25T02:40:13.265Z,101774.17
2019-03-25T02:42:41.141Z,101776.34
2019-03-25T02:45:09.158Z,101778.66
2019-03-25T02:47:36.942Z,101767.48
2019-03-25T02:50:05.079Z,101766.97
2019-03-25T02:52:32.937Z,101767.90
2019-03-25T02:55:00.738Z,101763.38
2019-03-25T02:57:28.594Z,101768.31
2019-03-25T02:59:56.399Z,101765.17
2019-03-25T03:02:24.279Z,101759.53
2019-03-25T03:04:52.192Z,101755.83
2019-03-25T03:07:20.035Z,101755.83
2019-03-25T03:09:47.923Z,101754.30
2019-03-25T03:12:15.741Z,101751.20
2019-03-25T03:14:43.581Z,101745.15
2019-03-25T03:17:11.388Z,101747.64
2019-03-25T03:19:39.207Z,101742.23
2019-03-25T03:22:07.013Z,101729.77
2019-03-25T03:24:34.942Z,101729.77
2019-03-25T03:27:02.777Z,101734.09
2019-03-25T03:29:30.622Z,101736.48
2019-03-25T03:31:58.528Z,101725.72
2019-03-25T03:34:26.313Z,101733.33
2019-03-25T03:36:54.158Z,101726.00
2019-03-25T03:39:22.019Z,101714.41
2019-03-25T03:41:49.880Z,101710.08
2019-03-25T03:44:17.676Z,101726.13
2019-03-25T03:46:45.637Z,101723.14
2019-03-25T03:49:13.423Z,101723.08
2019-03-25T03:51:41.445Z,101722.80
2019-03-25T03:54:09.386Z,101702.28
2019-03-25T03:56:37.206Z,101709.18
2019-03-25T03:59:05.006Z,101705.13
2019-03-25T04:01:32.932Z,101695.92
2019-03-25T04:04:00.750Z,101695.20
2019-03-25T04:06:28.595Z,101688.86
2019-03-25T04:08:56.465Z,101658.60
2019-03-25T04:11:24.316Z,101658.60
2019-03-25T04:13:55.418Z,101673.99
2019-03-25T04:16:23.256Z,101660.98
2019-03-25T04:18:51.087Z,101661.33
2019-03-25T04:21:18.950Z,101649.14
2019-03-25T04:23:46.791Z,101676.09
2019-03-25T04:26:27.765Z,101689.11
2019-03-25T04:28:44.427Z,101670.86
2019-03-25T04:31:12.217Z,101663.06
2019-03-25T04:33:40.046Z,101670.09
2019-03-25T04:36:07.951Z,101670.09
2019-03-25T04:38:35.756Z,101657.32
2019-03-25T04:41:03.607Z,101651.80
2019-03-25T04:43:31.413Z,101661.53
2019-03-25T04:45:59.637Z,101656.19
2019-03-25T04:48:27.483Z,101655.58
2019-03-25T04:50:55.321Z,101656.95
2019-03-25T04:53:23.152Z,101637.45
2019-03-25T04:55:50.982Z,101634.70
2019-03-25T04:58:18.827Z,101622.09
2019-03-25T05:00:46.624Z,101628.06
2019-03-25T05:03:14.486Z,101662.77
2019-03-25T05:05:42.315Z,101678.76
2019-03-25T05:08:10.146Z,101670.38
2019-03-25T05:10:40.777Z,101657.26
2019-03-25T05:13:08.582Z,101661.64
2019-03-25T05:15:36.437Z,101656.41
2019-03-25T05:18:04.280Z,101653.80
2019-03-25T05:20:32.161Z,101660.91
2019-03-25T05:22:59.956Z,101655.31
2019-03-25T05:25:27.796Z,101661.00
2019-03-25T05:27:55.649Z,101649.16
2019-03-25T05:30:23.525Z,101655.48
2019-03-25T05:32:51.387Z,101656.31
2019-03-25T05:35:19.196Z,101660.30
2019-03-25T05:37:47.025Z,101657.83
2019-03-25T05:40:14.865Z,101656.00
2019-03-25T05:42:42.757Z,101662.12
2019-03-25T05:45:10.902Z,101660.42
2019-03-25T05:47:38.729Z,101656.63
2019-03-25T05:50:09.111Z,101660.45
2019-03-25T05:52:39.326Z,101667.78
2019-03-25T05:55:07.991Z,101657.82
2019-03-25T05:57:35.854Z,101657.52
2019-03-25T06:00:03.892Z,101657.70
2019-03-25T06:02:31.767Z,101648.56
2019-03-25T06:04:59.686Z,101647.44
2019-03-25T06:07:27.510Z,101645.91
2019-03-25T06:09:55.497Z,101654.95
2019-03-25T06:12:23.304Z,101645.20
2019-03-25T06:14:51.144Z,101661.29
2019-03-25T06:17:19.090Z,101663.67
2019-03-25T06:19:46.899Z,101674.42
2019-03-25T06:22:14.758Z,101676.38
2019-03-25T06:24:42.599Z,101666.93
2019-03-25T06:27:14.243Z,101688.55
2019-03-25T06:29:40.187Z,101685.22
2019-03-25T06:32:12.226Z,101673.95
2019-03-25T06:34:40.179Z,101677.70
2019-03-25T06:37:08.009Z,101679.38
2019-03-25T06:39:35.819Z,101661.16
2019-03-25T06:42:03.941Z,101673.70
2019-03-25T06:44:31.763Z,101696.53
2019-03-25T06:46:59.573Z,101721.41
2019-03-25T06:49:27.396Z,101701.95
2019-03-25T06:51:55.252Z,101705.64
2019-03-25T06:54:23.086Z,101712.47
2019-03-25T06:56:50.897Z,101711.08
2019-03-25T06:59:18.793Z,101733.29
2019-03-25T07:01:46.629Z,101725.72
2019-03-25T07:04:14.534Z,101726.03
2019-03-25T07:06:42.417Z,101724.20
2019-03-25T07:09:10.255Z,101743.70
2019-03-25T07:11:39.087Z,101747.28
2019-03-25T07:14:07.110Z,101761.77
2019-03-25T07:16:34.887Z,101771.30
2019-03-25T07:19:02.823Z,101772.72
2019-03-25T07:21:30.614Z,101783.29
2019-03-25T07:23:58.448Z,101769.98
2019-03-25T07:26:26.344Z,101762.27
2019-03-25T07:28:54.169Z,101781.17
2019-03-25T07:31:22.026Z,101781.48
2019-03-25T07:33:49.923Z,101821.41
2019-03-25T07:36:17.771Z,101817.27
2019-03-25T07:38:45.568Z,101819.22
2019-03-25T07:41:13.482Z,101825.42
2019-03-25T07:43:41.421Z,101841.18
2019-03-25T07:46:09.286Z,101838.56
2019-03-25T07:48:37.084Z,101839.73
2019-03-25T07:51:04.965Z,101859.94
2019-03-25T07:53:32.833Z,101845.38
2019-03-25T07:56:00.686Z,101878.74
2019-03-25T07:58:28.490Z,101878.61
2019-03-25T08:00:56.334Z,101863.73
2019-03-25T08:03:24.144Z,101869.50
2019-03-25T08:05:56.227Z,101892.66
2019-03-25T08:08:24.159Z,101907.03
2019-03-25T08:10:51.989Z,101913.28
2019-03-25T08:13:19.953Z,101913.28
2019-03-25T08:15:47.855Z,101910.48
2019-03-25T08:18:15.771Z,101904.42
2019-03-25T08:20:43.622Z,101920.70
2019-03-25T08:23:11.434Z,101927.61
2019-03-25T08:25:39.291Z,101935.42
2019-03-25T08:28:07.133Z,101941.74
2019-03-25T08:30:34.963Z,101950.13
2019-03-25T08:33:03.010Z,101947.31
2019-03-25T08:35:31.393Z,101954.28
2019-03-25T08:37:59.193Z,101947.64
2019-03-25T08:40:27.047Z,101953.11
2019-03-25T08:42:54.954Z,101964.43
2019-03-25T08:45:22.892Z,101955.56
2019-03-25T08:47:50.676Z,101966.40
2019-03-25T08:50:25.089Z,101980.50
2019-03-25T08:52:55.959Z,101968.25
2019-03-25T08:55:23.861Z,101986.13
2019-03-25T08:57:51.763Z,101996.92
2019-03-25T09:00:20.223Z,101990.34
2019-03-25T09:02:48.049Z,102000.13
2019-03-25T09:05:16.101Z,102005.39
2019-03-25T09:07:43.973Z,101997.96
2019-03-25T09:10:13.492Z,101997.98
2019-03-25T09:12:41.541Z,101997.98
2019-03-25T09:15:11.733Z,102020.25
2019-03-25T09:17:39.620Z,102021.73
2019-03-25T09:20:08.424Z,102022.59
2019-03-25T09:22:36.431Z,102026.24
2019-03-25T09:25:04.723Z,102028.81
2019-03-25T09:27:32.566Z,102028.81
2019-03-25T09:30:03.197Z,102029.89
2019-03-25T09:32:30.197Z,102051.50
2019-03-25T09:34:58.079Z,102051.50
2019-03-25T09:37:25.902Z,102045.83
2019-03-25T09:39:53.757Z,102034.16
2019-03-25T09:42:21.714Z,102052.27
2019-03-25T09:44:49.533Z,102052.27
2019-03-25T09:47:17.392Z,102056.92
2019-03-25T09:49:45.211Z,102070.05
2019-03-25T09:52:13.029Z,102065.70
2019-03-25T09:54:41.018Z,102064.31
2019-03-25T09:57:08.947Z,102071.33
2019-03-25T09:59:36.812Z,102073.50
2019-03-25T10:02:04.905Z,102078.17
2019-03-25T10:04:32.725Z,102078.17
2019-03-25T10:07:00.663Z,102076.11
2019-03-25T10:09:28.519Z,102075.16
2019-03-25T10:11:56.406Z,102059.59
2019-03-25T10:14:24.300Z,102070.56
2019-03-25T10:16:52.197Z,102068.05
2019-03-25T10:19:19.944Z,102072.22
2019-03-25T10:21:47.756Z,102067.53
2019-03-25T10:24:15.713Z,102066.49
2019-03-25T10:26:44.485Z,102073.81
2019-03-25T10:29:12.309Z,102079.85
2019-03-25T10:31:40.188Z,102086.52
2019-03-25T10:34:08.002Z,102083.12
2019-03-25T10:36:35.879Z,102077.39
2019-03-25T10:39:05.593Z,102077.39
2019-03-25T10:41:33.431Z,102092.00
2019-03-25T10:44:01.273Z,102086.05
2019-03-25T10:46:29.060Z,102099.17
2019-03-25T10:48:56.893Z,102088.02
2019-03-25T10:51:24.699Z,102095.88
2019-03-25T10:53:52.523Z,102105.29
2019-03-25T10:56:20.387Z,102097.12
2019-03-25T10:58:50.711Z,102100.80
2019-03-25T11:01:17.986Z,102100.80
2019-03-25T11:03:45.796Z,102105.58
2019-03-25T11:06:13.747Z,102121.94
2019-03-25T11:08:41.635Z,102119.32
2019-03-25T11:11:09.674Z,102108.33
2019-03-25T11:13:37.510Z,102116.62
2019-03-25T11:16:05.339Z,102116.62
2019-03-25T11:18:33.309Z,102125.94
2019-03-25T11:21:01.073Z,102124.23
2019-03-25T11:23:28.915Z,102132.23
2019-03-25T11:25:56.793Z,102132.23
2019-03-25T11:28:24.562Z,102151.72
2019-03-25T11:30:57.229Z,102131.15
2019-03-25T11:33:25.117Z,102136.77
2019-03-25T11:35:54.518Z,102139.48
2019-03-25T11:38:22.438Z,102135.25
2019-03-25T11:40:50.335Z,102140.27
2019-03-25T11:43:18.169Z,102159.53
2019-03-25T11:45:46.126Z,102158.94
2019-03-25T11:48:13.891Z,102168.42
2019-03-25T11:50:41.714Z,102170.91
2019-03-25T11:53:09.507Z,102175.79
2019-03-25T11:55:37.319Z,102175.79
2019-03-25T11:58:05.125Z,102181.88
2019-03-25T12:00:33.051Z,102160.88
2019-03-25T12:03:00.929Z,102178.39
2019-03-25T12:05:28.737Z,102178.39
2019-03-25T12:07:56.601Z,102187.52
2019-03-25T12:10:24.403Z,102180.28
2019-03-25T12:12:52.232Z,102165.73
2019-03-25T12:15:21.129Z,102182.99
2019-03-25T12:17:48.920Z,102182.99
2019-03-25T12:20:16.769Z,102189.84
2019-03-25T12:22:44.545Z,102187.49
2019-03-25T12:25:12.547Z,102198.14
2019-03-25T12:27:40.704Z,102195.00
2019-03-25T12:30:08.887Z,102197.34
2019-03-25T12:32:37.135Z,102208.85
2019-03-25T12:35:05.528Z,102198.55
2019-03-25T12:37:33.323Z,102220.30
2019-03-25T12:40:01.294Z,102229.51
2019-03-25T12:42:29.261Z,102223.88
2019-03-25T12:44:57.162Z,102223.88
2019-03-25T12:47:25.062Z,102230.88
2019-03-25T12:49:52.868Z,102235.84
2019-03-25T12:52:20.674Z,102235.84
2019-03-25T12:54:48.481Z,102227.17
2019-03-25T12:57:16.340Z,102227.17
2019-03-25T12:59:44.150Z,102240.13
2019-03-25T13:02:12.052Z,102236.95
2019-03-25T13:04:40.003Z,102265.23
2019-03-25T13:07:07.843Z,102264.40
2019-03-25T13:09:35.675Z,102277.92
2019-03-25T13:12:03.916Z,102271.39
2019-03-25T13:14:31.745Z,102271.39
2019-03-25T13:16:59.597Z,102288.63
2019-03-25T13:19:27.483Z,102288.63
2019-03-25T13:21:55.385Z,102287.92
2019-03-25T13:24:23.218Z,102287.92
2019-03-25T13:26:51.056Z,102297.18
2019-03-25T13:29:18.867Z,102310.66
2019-03-25T13:31:46.735Z,102310.17
2019-03-25T13:34:14.607Z,102316.57
2019-03-25T13:36:42.397Z,102322.05
2019-03-25T13:39:10.370Z,102317.63
2019-03-25T13:41:40.891Z,102338.82
2019-03-25T13:44:08.754Z,102339.95
2019-03-25T13:46:37.544Z,102341.86
2019-03-25T13:49:05.349Z,102359.59
2019-03-25T13:51:34.708Z,102359.59
2019-03-25T13:54:02.477Z,102341.03
2019-03-25T13:56:30.331Z,102349.14
2019-03-25T13:58:58.128Z,102350.94
2019-03-25T14:01:25.979Z,102386.30
2019-03-25T14:03:53.816Z,102386.30
2019-03-25T14:06:21.624Z,102382.16
2019-03-25T14:08:49.437Z,102381.56
2019-03-25T14:11:17.333Z,102384.70
2019-03-25T14:13:49.431Z,102375.52
2019-03-25T14:16:14.922Z,102392.58
2019-03-25T14:18:42.740Z,102383.20
2019-03-25T14:21:10.597Z,102384.70
2019-03-25T14:23:38.564Z,102406.38
2019-03-25T14:26:06.408Z,102406.38
2019-03-25T14:28:34.190Z,102404.58
2019-03-25T14:31:02.021Z,102401.27
2019-03-25T14:33:29.828Z,102409.33
2019-03-25T14:35:57.651Z,102409.33
2019-03-25T14:38:25.487Z,102427.30
2019-03-25T14:40:53.420Z,102427.30
2019-03-25T14:43:21.327Z,102429.22
2019-03-25T14:45:49.153Z,102430.72
2019-03-25T14:48:17.052Z,102438.89
2019-03-25T14:50:44.883Z,102453.03
2019-03-25T14:53:12.769Z,102445.06
2019-03-25T14:55:40.616Z,102453.52
2019-03-25T14:58:08.479Z,102455.88
2019-03-25T15:00:36.363Z,102462.33
2019-03-25T15:03:05.226Z,102462.33
2019-03-25T15:05:33.031Z,102468.58
2019-03-25T15:08:00.875Z,102475.64
2019-03-25T15:10:28.680Z,102474.62
2019-03-25T15:12:58.197Z,102466.25
2019-03-25T15:15:26.043Z,102489.48
2019-03-25T15:17:53.901Z,102486.95
2019-03-25T15:20:21.915Z,102501.48
2019-03-25T15:22:49.791Z,102526.22
2019-03-25T15:25:17.621Z,102506.20
2019-03-25T15:27:45.464Z,102519.85
2019-03-25T15:30:13.635Z,102522.57
2019-03-25T15:32:41.525Z,102527.70
2019-03-25T15:35:10.665Z,102528.02
2019-03-25T15:37:38.509Z,102538.81
2019-03-25T15:40:09.300Z,102538.02
2019-03-25T15:42:37.354Z,102538.02
2019-03-25T15:45:05.717Z,102552.60
2019-03-25T15:47:33.597Z,102550.01
2019-03-25T15:50:01.481Z,102550.01
2019-03-25T15:52:29.468Z,102562.42
2019-03-25T15:54:57.306Z,102559.02
2019-03-25T15:57:25.131Z,102559.02
2019-03-25T15:59:52.989Z,102564.64
2019-03-25T16:02:20.793Z,102572.69
2019-03-25T16:04:48.632Z,102576.83
2019-03-25T16:07:18.784Z,102577.33
2019-03-25T16:09:46.609Z,102580.06
2019-03-25T16:12:14.464Z,102590.70
2019-03-25T16:14:42.393Z,102598.19
2019-03-25T16:17:10.187Z,102602.95
2019-03-25T16:19:38.000Z,102615.16
2019-03-25T16:22:05.843Z,102609.22
2019-03-25T16:24:33.651Z,102616.84
2019-03-25T16:27:01.554Z,102608.65
2019-03-25T16:29:29.341Z,102608.65
2019-03-25T16:31:57.139Z,102612.41
2019-03-25T16:34:24.987Z,102612.41
2019-03-25T16:36:52.830Z,102625.61
2019-03-25T16:39:20.670Z,102633.98
2019-03-25T16:41:48.505Z,102633.56
2019-03-25T16:44:16.342Z,102629.95
2019-03-25T16:46:44.553Z,102637.41
2019-03-25T16:49:14.731Z,102644.63
2019-03-25T16:51:42.542Z,102650.44
2019-03-25T16:54:10.351Z,102650.89
2019-03-25T16:56:38.318Z,102658.02
2019-03-25T16:59:06.105Z,102654.13
2019-03-25T17:01:33.903Z,102654.54
2019-03-25T17:04:01.739Z,102653.73
2019-03-25T17:06:29.605Z,102652.96
2019-03-25T17:08:57.426Z,102652.96
2019-03-25T17:11:25.468Z,102670.70
2019-03-25T17:13:53.279Z,102669.23
2019-03-25T17:16:21.100Z,102685.05
2019-03-25T17:18:48.895Z,102680.84
2019-03-25T17:21:16.844Z,102686.97
2019-03-25T17:23:44.678Z,102692.50
2019-03-25T17:26:12.504Z,102698.12
2019-03-25T17:28:40.434Z,102701.48
2019-03-25T17:31:08.379Z,102711.52
2019-03-25T17:33:36.172Z,102725.25
2019-03-25T17:36:04.136Z,102725.19
2019-03-25T17:38:31.933Z,102721.86
2019-03-25T17:40:59.810Z,102732.34
2019-03-25T17:43:27.668Z,102732.34
2019-03-25T17:45:55.864Z,102731.64
2019-03-25T17:48:23.745Z,102733.52
2019-03-25T17:50:52.983Z,102737.02
2019-03-25T17:53:23.063Z,102746.13
2019-03-25T17:55:51.379Z,102748.21
2019-03-25T17:58:19.481Z,102749.77
2019-03-25T18:01:03.763Z,102754.38
2019-03-25T18:03:31.645Z,102753.34
2019-03-25T18:05:59.541Z,102762.42
2019-03-25T18:08:27.485Z,102766.95
2019-03-25T18:10:55.330Z,102777.15
2019-03-25T18:13:23.179Z,102778.12
2019-03-25T18:15:50.981Z,102796.73
2019-03-25T18:18:18.804Z,102796.37
2019-03-25T18:20:46.627Z,102799.47
2019-03-25T18:23:14.520Z,102802.86
2019-03-25T18:25:42.322Z,102806.39
2019-03-25T18:28:10.171Z,102803.95
2019-03-25T18:30:38.100Z,102811.77
2019-03-25T18:33:05.981Z,102815.77
2019-03-25T18:35:33.760Z,102821.65
2019-03-25T18:38:01.575Z,102827.08
2019-03-25T18:40:29.395Z,102823.91
2019-03-25T18:42:57.286Z,102826.98
2019-03-25T18:45:25.188Z,102834.62
2019-03-25T18:47:53.530Z,102839.98
2019-03-25T18:50:21.445Z,102840.26
2019-03-25T18:52:49.250Z,102842.70
2019-03-25T18:55:17.580Z,102845.23
2019-03-25T18:57:45.482Z,102850.97
2019-03-25T19:00:22.935Z,102848.35
2019-03-25T19:02:50.755Z,102852.55
2019-03-25T19:05:18.593Z,102855.26
2019-03-25T19:07:47.424Z,102858.02
2019-03-25T19:10:20.308Z,102857.34
2019-03-25T19:12:48.093Z,102862.98
2019-03-25T19:15:15.878Z,102867.28
2019-03-25T19:17:43.774Z,102868.31
2019-03-25T19:20:11.592Z,102872.06
2019-03-25T19:22:39.522Z,102871.38
2019-03-25T19:25:07.495Z,102871.16
2019-03-25T19:27:35.397Z,102872.50
2019-03-25T19:30:04.379Z,102878.28
2019-03-25T19:32:32.407Z,102881.67
2019-03-25T19:35:00.501Z,102886.70
2019-03-25T19:37:28.572Z,102893.15
2019-03-25T19:39:56.463Z,102889.89
2019-03-25T19:42:24.349Z,102894.90
2019-03-25T19:44:52.206Z,102907.05
2019-03-25T19:47:31.912Z,102908.13
2019-03-25T19:49:59.733Z,102903.70
2019-03-25T19:52:27.529Z,102904.84
2019-03-25T19:54:55.381Z,102907.05
2019-03-25T19:57:28.158Z,102910.25
2019-03-25T19:59:55.484Z,102912.23
2019-03-25T20:02:23.296Z,102917.16
2019-03-25T20:04:51.128Z,102920.69
2019-03-25T20:07:18.948Z,102929.09
2019-03-25T20:09:46.724Z,102926.53
2019-03-25T20:12:14.592Z,102928.21
2019-03-25T20:14:42.346Z,102927.04
2019-03-25T20:17:10.142Z,102942.45
2019-03-25T20:19:37.909Z,102942.25
2019-03-25T20:22:05.783Z,102936.70
2019-03-25T20:24:33.605Z,102937.34
2019-03-25T20:27:02.057Z,102954.86
2019-03-25T20:29:30.217Z,102954.19
2019-03-25T20:31:58.014Z,102967.29
2019-03-25T20:34:25.924Z,102969.53
2019-03-25T20:36:53.799Z,102976.66
2019-03-25T20:39:21.589Z,102972.63
2019-03-25T20:41:49.433Z,102974.39
2019-03-25T20:44:17.183Z,102968.16
2019-03-25T20:46:45.024Z,102968.33
2019-03-25T20:49:12.904Z,102979.15
2019-03-25T20:51:40.704Z,102977.57
2019-03-25T20:54:08.607Z,102982.95
2019-03-25T20:56:36.408Z,102979.17
2019-03-25T20:59:04.687Z,102980.89
2019-03-25T21:01:32.659Z,102988.31
2019-03-25T21:04:00.449Z,102982.24
2019-03-25T21:06:28.338Z,102983.31
2019-03-25T21:08:56.126Z,102995.61
2019-03-25T21:11:23.901Z,102997.62
2019-03-25T21:13:51.837Z,103001.67
2019-03-25T21:16:22.494Z,103004.58
2019-03-25T21:18:52.294Z,103006.56
2019-03-25T21:21:20.127Z,103009.53
2019-03-25T21:23:47.961Z,103014.53
2019-03-25T21:26:15.756Z,103013.75
2019-03-25T21:28:43.611Z,103008.52
2019-03-25T21:31:11.410Z,103012.45
2019-03-25T21:33:39.359Z,103005.77
2019-03-25T21:36:07.129Z,103020.35
2019-03-25T21:38:35.006Z,103028.88
2019-03-25T21:41:02.961Z,103034.72
2019-03-25T21:43:30.990Z,103037.92
2019-03-25T21:45:58.825Z,103043.37
2019-03-25T21:48:26.753Z,103035.36
2019-03-25T21:50:54.616Z,103035.12
2019-03-25T21:53:22.441Z,103033.92
2019-03-25T21:55:50.191Z,103035.52
2019-03-25T21:58:18.116Z,103040.47
2019-03-25T22:00:45.997Z,103029.88
2019-03-25T22:03:13.775Z,103031.15
2019-03-25T22:05:41.615Z,103031.45
2019-03-25T22:08:09.393Z,103029.06
2019-03-25T22:10:37.219Z,103026.86
2019-03-25T22:13:05.088Z,103031.97
2019-03-25T22:15:32.893Z,103034.44
2019-03-25T22:18:00.717Z,103023.41
2019-03-25T22:20:28.534Z,103029.05
2019-03-25T22:22:56.363Z,103026.92
2019-03-25T22:25:24.173Z,103045.53
2019-03-25T22:27:51.973Z,103033.40
2019-03-25T22:30:19.861Z,103039.78
2019-03-25T22:32:47.660Z,103030.16
2019-03-25T22:35:15.475Z,103036.16
2019-03-25T22:37:43.324Z,103032.52
2019-03-25T22:40:11.297Z,103043.83
2019-03-25T22:42:39.154Z,103051.21
2019-03-25T22:45:07.750Z,103050.66
2019-03-25T22:47:35.818Z,103052.63
2019-03-25T22:50:04.937Z,103059.05
2019-03-25T22:52:32.717Z,103062.14
2019-03-25T22:55:00.509Z,103064.43
2019-03-25T22:57:28.437Z,103056.89
2019-03-25T22:59:56.239Z,103063.76
2019-03-25T23:02:24.041Z,103063.86
2019-03-25T23:04:51.929Z,103067.44
2019-03-25T23:07:19.769Z,103067.44
2019-03-25T23:09:47.968Z,103062.20
2019-03-25T23:12:15.782Z,103067.04
2019-03-25T23:14:43.553Z,103052.85
2019-03-25T23:17:11.429Z,103051.02
2019-03-25T23:19:39.247Z,103055.59
2019-03-25T23:22:07.103Z,103053.70
2019-03-25T23:24:34.968Z,103042.73
2019-03-25T23:27:02.792Z,103058.95
2019-03-25T23:29:31.489Z,103056.22
2019-03-25T23:31:59.553Z,103052.78
2019-03-25T23:34:27.342Z,103052.02
2019-03-25T23:36:55.157Z,103058.14
2019-03-25T23:39:25.222Z,103055.14
2019-03-25T23:41:52.676Z,103060.76
2019-03-25T23:44:20.489Z,103065.05
2019-03-25T23:46:48.312Z,103065.59
2019-03-25T23:49:16.223Z,103063.76
2019-03-25T23:51:44.199Z,103064.55
2019-03-25T23:54:13.238Z,103067.14
2019-03-25T23:56:41.752Z,103058.84
2019-03-25T23:59:10.507Z,103057.13
